createdAt,value
2023-02-14T00:01:56.928Z,13.75
2023-02-14T00:04:23.985Z,7.85
2023-02-14T00:06:51.035Z,10.65
2023-02-14T00:09:19.924Z,16.27
2023-02-14T00:11:47.009Z,15.18
2023-02-14T00:14:32.982Z,17.98
2023-02-14T00:17:00.237Z,16.88
2023-02-14T00:19:27.624Z,10.30
2023-02-14T00:21:54.623Z,14.00
2023-02-14T00:24:24.374Z,15.20
2023-02-14T00:26:52.491Z,13.93
2023-02-14T00:29:23.456Z,15.82
2023-02-14T00:31:51.206Z,15.40
2023-02-14T00:34:19.190Z,11.50
2023-02-14T00:36:47.065Z,10.88
2023-02-14T00:39:15.331Z,12.13
2023-02-14T00:41:43.008Z,15.15
2023-02-14T00:44:11.071Z,12.05
2023-02-14T00:46:38.322Z,14.25
2023-02-14T00:49:05.540Z,14.98
2023-02-14T00:51:33.076Z,16.25
2023-02-14T00:54:00.118Z,19.58
2023-02-14T00:56:27.066Z,12.30
2023-02-14T00:58:54.058Z,17.80
2023-02-14T01:01:21.534Z,14.52
2023-02-14T01:03:48.981Z,16.50
2023-02-14T01:06:16.440Z,20.05
2023-02-14T01:08:43.498Z,13.77
2023-02-14T01:11:17.919Z,12.73
2023-02-14T01:13:45.711Z,16.30
2023-02-14T01:16:15.703Z,14.07
2023-02-14T01:18:43.608Z,12.50
2023-02-14T01:21:25.876Z,14.82
2023-02-14T01:23:55.173Z,11.65
2023-02-14T01:26:23.269Z,15.23
2023-02-14T01:28:50.748Z,11.32
2023-02-14T01:31:27.241Z,16.40
2023-02-14T01:33:55.270Z,12.38
2023-02-14T01:36:27.904Z,11.13
2023-02-14T01:39:02.342Z,14.27
2023-02-14T01:44:28.603Z,15.35
2023-02-14T01:46:56.570Z,11.82
2023-02-14T01:49:37.946Z,12.35
2023-02-14T01:52:10.352Z,18.88
2023-02-14T01:54:41.730Z,21.00
2023-02-14T01:57:11.399Z,14.10
2023-02-14T01:59:43.026Z,9.00
2023-02-14T02:02:10.794Z,12.32
2023-02-14T02:04:45.002Z,18.98
2023-02-14T02:07:19.387Z,13.20
2023-02-14T02:09:51.625Z,11.75
2023-02-14T02:12:18.944Z,16.08
2023-02-14T02:14:47.216Z,13.40
2023-02-14T02:18:01.680Z,12.02
2023-02-14T02:20:31.668Z,12.60
2023-02-14T02:23:19.921Z,16.58
2023-02-14T02:26:31.492Z,10.80
2023-02-14T02:29:12.961Z,12.50
2023-02-14T02:32:23.692Z,18.80
2023-02-14T02:35:08.906Z,16.05
2023-02-14T02:37:57.570Z,13.27
2023-02-14T02:40:33.315Z,11.32
2023-02-14T02:43:21.255Z,18.88
2023-02-14T02:46:16.608Z,16.35
2023-02-14T02:48:52.529Z,10.48
2023-02-14T02:51:53.496Z,14.98
2023-02-14T02:54:28.456Z,13.00
2023-02-14T02:56:59.706Z,19.40
2023-02-14T02:59:36.858Z,14.27
2023-02-14T03:02:18.367Z,13.02
2023-02-14T03:05:02.127Z,13.32
2023-02-14T03:07:39.639Z,15.80
2023-02-14T03:10:19.658Z,13.02
2023-02-14T03:13:31.004Z,16.55
2023-02-14T03:16:03.667Z,17.35
2023-02-14T03:19:10.918Z,16.15
2023-02-14T03:21:57.643Z,17.00
2023-02-14T03:24:32.863Z,17.60
2023-02-14T03:27:21.222Z,13.80
2023-02-14T03:30:26.325Z,16.27
2023-02-14T03:33:27.718Z,13.98
2023-02-14T03:36:04.273Z,9.73
2023-02-14T03:38:49.619Z,14.80
2023-02-14T03:41:24.182Z,12.82
2023-02-14T03:46:49.311Z,14.15
2023-02-14T03:49:22.140Z,16.80
2023-02-14T03:51:52.687Z,12.07
2023-02-14T03:54:21.157Z,13.20
2023-02-14T03:57:16.876Z,14.13
2023-02-14T03:59:44.287Z,10.93
2023-02-14T04:02:35.790Z,14.55
2023-02-14T04:05:07.518Z,13.07
2023-02-14T04:07:52.075Z,17.42
2023-02-14T04:10:20.900Z,15.13
2023-02-14T04:12:48.574Z,17.00
2023-02-14T04:15:16.543Z,16.27
2023-02-14T04:18:02.225Z,13.13
2023-02-14T04:20:29.874Z,10.65
2023-02-14T04:22:57.651Z,13.95
2023-02-14T04:25:25.046Z,12.35
2023-02-14T04:27:52.046Z,11.10
2023-02-14T04:30:21.017Z,14.40
2023-02-14T04:32:48.487Z,19.10
2023-02-14T04:35:15.943Z,17.15
2023-02-14T04:37:43.101Z,17.73
2023-02-14T04:40:10.593Z,19.80
2023-02-14T04:42:37.656Z,16.20
2023-02-14T04:45:04.872Z,14.73
2023-02-14T04:47:31.902Z,14.20
2023-02-14T04:49:58.956Z,15.60
2023-02-14T04:52:26.004Z,12.02
2023-02-14T04:54:53.420Z,16.38
2023-02-14T04:57:20.507Z,12.63
2023-02-14T04:59:47.451Z,12.65
2023-02-14T05:02:14.601Z,12.10
2023-02-14T05:04:41.619Z,15.30
2023-02-14T05:07:08.586Z,13.27
2023-02-14T05:09:35.567Z,15.77
2023-02-14T05:12:02.531Z,20.15
2023-02-14T05:14:29.531Z,13.55
2023-02-14T05:16:56.491Z,15.65
2023-02-14T05:19:24.136Z,16.95
2023-02-14T05:21:51.038Z,12.30
2023-02-14T05:24:18.295Z,16.92
2023-02-14T05:26:45.254Z,14.38
2023-02-14T05:29:12.293Z,12.68
2023-02-14T05:31:39.387Z,14.23
2023-02-14T05:34:06.660Z,16.40
2023-02-14T05:36:33.727Z,14.63
2023-02-14T05:39:00.662Z,13.90
2023-02-14T05:41:27.673Z,12.48
2023-02-14T05:43:54.671Z,11.75
2023-02-14T05:46:21.808Z,18.00
2023-02-14T05:48:48.806Z,13.93
2023-02-14T05:51:15.785Z,14.00
2023-02-14T05:53:42.711Z,16.02
2023-02-14T05:59:57.495Z,14.82
2023-02-14T06:02:24.734Z,13.93
2023-02-14T06:04:51.968Z,17.27
2023-02-14T06:07:19.306Z,16.27
2023-02-14T06:09:46.325Z,12.10
2023-02-14T06:12:13.246Z,15.85
2023-02-14T06:14:41.666Z,18.33
2023-02-14T06:17:09.989Z,18.77
2023-02-14T06:19:37.280Z,15.23
2023-02-14T06:22:04.743Z,14.85
2023-02-14T06:24:31.825Z,13.50
2023-02-14T06:26:59.887Z,12.68
2023-02-14T06:29:26.891Z,12.57
2023-02-14T06:31:54.008Z,11.75
2023-02-14T06:34:21.041Z,13.07
2023-02-14T06:36:48.030Z,17.13
2023-02-14T06:39:15.127Z,16.30
2023-02-14T06:41:42.082Z,12.52
2023-02-14T06:44:10.587Z,14.45
2023-02-14T06:46:37.559Z,11.82
2023-02-14T06:49:04.565Z,13.48
2023-02-14T06:51:31.499Z,12.88
2023-02-14T06:53:58.507Z,12.25
2023-02-14T06:56:25.508Z,10.85
2023-02-14T06:58:52.553Z,6.13
2023-02-14T07:01:19.566Z,9.20
2023-02-14T07:03:46.490Z,11.65
2023-02-14T07:06:13.481Z,11.18
2023-02-14T07:08:40.419Z,14.93
2023-02-14T07:11:07.429Z,9.82
2023-02-14T07:13:34.460Z,11.27
2023-02-14T07:16:01.451Z,10.85
2023-02-14T07:18:28.508Z,11.18
2023-02-14T07:20:55.685Z,14.07
2023-02-14T07:23:22.867Z,13.40
2023-02-14T07:25:49.905Z,9.13
2023-02-14T07:28:16.915Z,12.85
2023-02-14T07:30:44.011Z,12.75
2023-02-14T07:33:11.078Z,10.23
2023-02-14T07:35:38.085Z,13.70
2023-02-14T07:38:05.129Z,12.65
2023-02-14T07:40:32.282Z,9.93
2023-02-14T07:43:01.001Z,13.75
2023-02-14T07:45:28.155Z,11.80
2023-02-14T07:47:55.921Z,10.40
2023-02-14T07:50:23.484Z,13.10
2023-02-14T07:52:50.502Z,12.55
2023-02-14T07:55:17.582Z,13.80
2023-02-14T07:57:44.636Z,11.05
2023-02-14T08:00:12.147Z,9.23
2023-02-14T08:02:39.361Z,8.32
2023-02-14T08:05:06.635Z,9.98
2023-02-14T08:07:33.915Z,9.00
2023-02-14T08:10:00.882Z,10.55
2023-02-14T08:12:46.355Z,7.82
2023-02-14T08:15:31.645Z,11.30
2023-02-14T08:17:58.984Z,8.05
2023-02-14T08:20:26.020Z,6.85
2023-02-14T08:22:53.169Z,9.30
2023-02-14T08:25:20.288Z,8.68
2023-02-14T08:27:47.280Z,10.00
2023-02-14T08:30:14.942Z,8.98
2023-02-14T08:32:42.130Z,12.60
2023-02-14T08:35:09.256Z,8.57
2023-02-14T08:37:36.251Z,10.45
2023-02-14T08:40:03.551Z,8.75
2023-02-14T08:42:31.152Z,10.73
2023-02-14T08:44:58.120Z,8.25
2023-02-14T08:47:25.061Z,9.30
2023-02-14T08:49:51.988Z,8.90
2023-02-14T08:52:19.129Z,9.43
2023-02-14T08:54:46.039Z,8.40
2023-02-14T08:57:13.077Z,7.05
2023-02-14T08:59:40.016Z,8.75
2023-02-14T09:02:07.042Z,11.00
2023-02-14T09:04:35.754Z,10.85
2023-02-14T09:07:04.685Z,7.28
2023-02-14T09:09:32.428Z,9.55
2023-02-14T09:12:03.213Z,7.88
2023-02-14T09:14:32.096Z,10.93
2023-02-14T09:17:01.704Z,11.80
2023-02-14T09:19:28.726Z,9.02
2023-02-14T09:21:55.643Z,11.13
2023-02-14T09:24:22.562Z,8.13
2023-02-14T09:26:49.485Z,8.43
2023-02-14T09:29:16.400Z,8.73
2023-02-14T09:31:43.474Z,12.57
2023-02-14T09:34:10.490Z,11.18
2023-02-14T09:36:37.428Z,9.40
2023-02-14T09:39:04.878Z,9.18
2023-02-14T09:41:37.926Z,9.02
2023-02-14T09:44:21.024Z,10.07
2023-02-14T09:46:52.485Z,12.48
2023-02-14T09:49:30.253Z,8.27
2023-02-14T09:51:59.041Z,8.82
2023-02-14T09:54:29.006Z,25.60
2023-02-14T09:57:07.089Z,10.45
2023-02-14T09:59:37.784Z,10.98
2023-02-14T10:02:36.825Z,9.65
2023-02-14T10:05:13.163Z,10.13
2023-02-14T10:08:07.732Z,10.48
2023-02-14T10:10:43.292Z,13.18
2023-02-14T10:13:19.074Z,10.10
2023-02-14T10:15:50.910Z,10.35
2023-02-14T10:19:00.370Z,8.82
2023-02-14T10:21:48.646Z,11.57
2023-02-14T10:24:31.679Z,12.98
2023-02-14T10:27:21.569Z,12.57
2023-02-14T10:29:48.667Z,13.15
2023-02-14T10:32:24.597Z,12.50
2023-02-14T10:34:54.281Z,10.65
2023-02-14T10:38:01.504Z,12.10
2023-02-14T10:40:59.333Z,11.95
2023-02-14T10:43:35.939Z,9.98
2023-02-14T10:46:13.713Z,10.02
2023-02-14T10:48:59.685Z,10.73
2023-02-14T10:51:46.303Z,11.57
2023-02-14T10:54:22.556Z,11.82
2023-02-14T10:57:00.973Z,11.48
2023-02-14T10:59:35.131Z,12.77
2023-02-14T11:02:02.766Z,12.52
2023-02-14T11:04:31.461Z,8.05
2023-02-14T11:06:58.542Z,10.23
2023-02-14T11:09:25.510Z,9.60
2023-02-14T11:11:56.274Z,12.82
2023-02-14T11:14:31.638Z,9.63
2023-02-14T11:17:00.360Z,8.27
2023-02-14T11:19:37.141Z,11.30
2023-02-14T11:22:04.808Z,12.48
2023-02-14T11:24:38.583Z,13.52
2023-02-14T11:27:25.781Z,11.48
2023-02-14T11:29:53.178Z,10.32
2023-02-14T11:32:26.695Z,10.13
2023-02-14T11:35:04.548Z,8.15
2023-02-14T11:37:38.350Z,12.10
2023-02-14T11:40:06.509Z,9.23
2023-02-14T11:42:45.497Z,9.18
2023-02-14T11:45:45.823Z,10.35
2023-02-14T11:48:36.727Z,10.30
2023-02-14T11:51:16.214Z,12.80
2023-02-14T11:53:49.593Z,10.57
2023-02-14T11:56:19.015Z,8.90
2023-02-14T11:58:54.992Z,11.75
2023-02-14T12:01:24.354Z,13.38
2023-02-14T12:03:53.428Z,12.98
2023-02-14T12:06:29.349Z,11.75
2023-02-14T12:09:12.582Z,9.52
2023-02-14T12:11:39.757Z,10.55
2023-02-14T12:14:21.862Z,11.43
2023-02-14T12:17:20.057Z,10.95
2023-02-14T12:20:16.249Z,11.20
2023-02-14T12:23:01.320Z,9.95
2023-02-14T12:25:44.331Z,14.20
2023-02-14T12:28:16.500Z,8.65
2023-02-14T12:30:43.648Z,9.35
2023-02-14T12:33:22.024Z,10.88
2023-02-14T12:35:58.936Z,9.60
2023-02-14T12:38:34.366Z,10.35
2023-02-14T12:41:16.421Z,10.02
2023-02-14T12:43:48.121Z,10.50
2023-02-14T12:46:47.381Z,10.00
2023-02-14T12:49:17.172Z,12.52
2023-02-14T12:51:46.986Z,7.40
2023-02-14T12:54:35.137Z,10.73
2023-02-14T12:57:08.086Z,14.75
2023-02-14T12:59:56.102Z,12.23
2023-02-14T13:02:44.721Z,9.73
2023-02-14T13:05:14.702Z,12.15
2023-02-14T13:08:12.431Z,11.80
2023-02-14T13:11:14.319Z,13.15
2023-02-14T13:13:47.239Z,13.65
2023-02-14T13:16:33.510Z,11.27
2023-02-14T13:19:39.593Z,12.20
2023-02-14T13:22:11.639Z,11.73
2023-02-14T13:24:43.926Z,11.65
2023-02-14T13:27:22.641Z,13.82
2023-02-14T13:29:59.094Z,11.30
2023-02-14T13:32:33.381Z,11.27
2023-02-14T13:35:01.598Z,12.52
2023-02-14T13:37:30.575Z,12.50
2023-02-14T13:40:18.225Z,14.32
2023-02-14T13:42:48.186Z,14.38
2023-02-14T13:45:50.880Z,13.70
2023-02-14T13:48:21.815Z,16.35
2023-02-14T13:50:57.943Z,12.13
2023-02-14T13:53:32.913Z,14.45
2023-02-14T13:56:00.967Z,11.40
2023-02-14T13:58:28.475Z,13.05
2023-02-14T14:00:55.774Z,9.10
2023-02-14T14:03:28.986Z,9.75
2023-02-14T14:06:06.653Z,10.82
2023-02-14T14:08:38.877Z,12.43
2023-02-14T14:11:22.639Z,8.68
2023-02-14T14:14:02.661Z,11.15
2023-02-14T14:16:33.861Z,9.30
2023-02-14T14:19:06.935Z,10.85
2023-02-14T14:21:39.720Z,11.35
2023-02-14T14:24:12.907Z,8.68
2023-02-14T14:26:46.468Z,7.55
2023-02-14T14:29:22.564Z,6.93
2023-02-14T14:31:55.706Z,10.93
2023-02-14T14:34:28.352Z,9.20
2023-02-14T14:37:06.376Z,11.13
2023-02-14T14:39:35.467Z,7.25
2023-02-14T14:42:15.653Z,9.07
2023-02-14T14:44:56.023Z,10.60
2023-02-14T14:47:47.888Z,8.27
2023-02-14T14:50:26.949Z,12.23
2023-02-14T14:52:58.710Z,15.25
2023-02-14T14:55:29.612Z,14.10
2023-02-14T14:57:59.742Z,12.00
2023-02-14T15:00:36.275Z,11.95
2023-02-14T15:03:05.198Z,9.82
2023-02-14T15:05:38.184Z,14.05
2023-02-14T15:08:20.285Z,12.80
2023-02-14T15:11:35.189Z,12.95
2023-02-14T15:14:05.841Z,16.40
2023-02-14T15:16:45.102Z,11.82
2023-02-14T15:19:33.597Z,17.88
2023-02-14T15:22:18.708Z,15.02
2023-02-14T15:24:46.453Z,12.40
2023-02-14T15:27:23.315Z,14.27
2023-02-14T15:29:54.461Z,12.68
2023-02-14T15:32:22.054Z,12.50
2023-02-14T15:34:49.895Z,14.32
2023-02-14T15:37:17.590Z,12.07
2023-02-14T15:39:52.584Z,14.60
2023-02-14T15:42:32.787Z,15.70
2023-02-14T15:45:18.306Z,12.13
2023-02-14T15:47:48.467Z,17.08
2023-02-14T15:50:26.059Z,12.55
2023-02-14T15:52:58.495Z,15.52
2023-02-14T15:55:27.753Z,12.38
2023-02-14T15:58:02.355Z,12.75
2023-02-14T16:00:31.730Z,15.00
2023-02-14T16:03:07.869Z,13.57
2023-02-14T16:05:35.178Z,15.07
2023-02-14T16:08:28.011Z,15.80
2023-02-14T16:11:09.862Z,14.60
2023-02-14T16:13:38.756Z,11.43
2023-02-14T16:16:11.440Z,12.57
2023-02-14T16:18:48.693Z,14.18
2023-02-14T16:21:17.449Z,13.70
2023-02-14T16:23:46.888Z,13.35
2023-02-14T16:26:14.658Z,15.35
2023-02-14T16:28:43.391Z,12.05
2023-02-14T16:31:16.701Z,11.38
2023-02-14T16:33:43.786Z,16.45
2023-02-14T16:36:33.145Z,18.85
2023-02-14T16:39:05.079Z,14.10
2023-02-14T16:41:34.422Z,15.38
2023-02-14T16:44:01.471Z,19.60
2023-02-14T16:46:35.264Z,14.38
2023-02-14T16:49:02.280Z,14.48
2023-02-14T16:51:32.638Z,14.30
2023-02-14T16:54:04.372Z,17.33
2023-02-14T16:57:04.314Z,18.70
2023-02-14T16:59:31.841Z,17.20
2023-02-14T17:01:59.105Z,15.15
2023-02-14T17:04:26.355Z,14.68
2023-02-14T17:06:55.349Z,18.30
2023-02-14T17:09:27.825Z,19.48
2023-02-14T17:11:57.972Z,20.73
2023-02-14T17:14:29.187Z,22.25
2023-02-14T17:16:57.312Z,17.63
2023-02-14T17:19:24.366Z,15.20
2023-02-14T17:21:52.079Z,18.85
2023-02-14T17:24:18.983Z,19.30
2023-02-14T17:26:46.031Z,19.83
2023-02-14T17:29:13.586Z,19.20
2023-02-14T17:31:40.645Z,19.75
2023-02-14T17:34:07.670Z,18.88
2023-02-14T17:36:34.699Z,21.38
2023-02-14T17:39:03.413Z,16.02
2023-02-14T17:41:31.846Z,19.80
2023-02-14T17:44:00.476Z,21.67
2023-02-14T17:46:29.451Z,19.83
2023-02-14T17:48:57.612Z,20.33
2023-02-14T17:51:25.610Z,18.08
2023-02-14T17:53:52.617Z,19.83
2023-02-14T17:56:22.842Z,18.08
2023-02-14T17:58:51.726Z,15.95
2023-02-14T18:01:22.297Z,15.93
2023-02-14T18:03:52.008Z,15.85
2023-02-14T18:06:19.883Z,19.58
2023-02-14T18:08:58.022Z,16.67
2023-02-14T18:11:27.927Z,15.82
2023-02-14T18:13:56.554Z,15.48
2023-02-14T18:16:24.960Z,18.58
2023-02-14T18:18:52.407Z,18.75
2023-02-14T18:21:21.835Z,19.90
2023-02-14T18:23:48.952Z,21.55
2023-02-14T18:26:18.492Z,22.30
2023-02-14T18:28:45.963Z,16.27
2023-02-14T18:31:18.251Z,19.48
2023-02-14T18:33:48.468Z,17.73
2023-02-14T18:36:17.946Z,22.08
2023-02-14T18:38:46.401Z,22.77
2023-02-14T18:41:16.611Z,31.00
2023-02-14T18:43:44.839Z,17.95
2023-02-14T18:46:16.129Z,20.60
2023-02-14T18:48:43.745Z,17.95
2023-02-14T18:51:19.515Z,15.45
2023-02-14T18:53:47.202Z,14.93
2023-02-14T18:56:19.213Z,18.92
2023-02-14T18:58:50.615Z,19.85
2023-02-14T19:01:21.662Z,18.77
2023-02-14T19:03:49.849Z,16.98
2023-02-14T19:06:18.233Z,16.23
2023-02-14T19:08:45.708Z,15.18
2023-02-14T19:15:00.149Z,19.52
2023-02-14T19:17:27.732Z,18.23
2023-02-14T19:19:55.769Z,22.80
2023-02-14T19:22:22.855Z,21.98
2023-02-14T19:24:53.768Z,15.13
2023-02-14T19:27:21.667Z,13.95
2023-02-14T19:29:48.648Z,20.20
2023-02-14T19:32:15.936Z,14.20
2023-02-14T19:34:42.940Z,24.75
2023-02-14T19:37:09.870Z,17.88
2023-02-14T19:39:36.842Z,16.25
2023-02-14T19:42:05.298Z,18.58
2023-02-14T19:44:32.680Z,18.42
2023-02-14T19:47:02.747Z,18.00
2023-02-14T19:49:32.020Z,16.52
2023-02-14T19:51:59.780Z,18.35
2023-02-14T19:54:27.040Z,18.48
2023-02-14T19:56:56.339Z,16.73
2023-02-14T19:59:23.563Z,13.13
2023-02-14T20:01:52.834Z,15.15
2023-02-14T20:04:29.030Z,13.45
2023-02-14T20:06:56.868Z,18.77
2023-02-14T20:09:24.874Z,19.80
2023-02-14T20:11:56.627Z,17.10
2023-02-14T20:14:25.244Z,16.23
2023-02-14T20:16:53.821Z,20.67
2023-02-14T20:19:23.310Z,13.70
2023-02-14T20:21:51.084Z,16.98
2023-02-14T20:24:23.268Z,22.42
2023-02-14T20:26:51.343Z,19.55
2023-02-14T20:29:19.369Z,17.73
2023-02-14T20:31:49.635Z,15.25
2023-02-14T20:34:17.460Z,17.67
2023-02-14T20:36:49.686Z,16.80
2023-02-14T20:39:16.713Z,15.80
2023-02-14T20:41:46.450Z,17.02
2023-02-14T20:44:17.048Z,14.00
2023-02-14T20:46:44.306Z,14.93
2023-02-14T20:49:12.543Z,16.83
2023-02-14T20:51:39.785Z,18.38
2023-02-14T20:54:07.162Z,25.05
2023-02-14T20:56:34.636Z,22.02
2023-02-14T20:59:02.766Z,20.75
2023-02-14T21:01:30.207Z,18.70
2023-02-14T21:03:57.439Z,13.85
2023-02-14T21:06:27.436Z,15.40
2023-02-14T21:08:54.674Z,17.10
2023-02-14T21:11:24.389Z,26.40
2023-02-14T21:13:59.657Z,15.95
2023-02-14T21:16:29.457Z,16.55
2023-02-14T21:19:01.102Z,15.63
2023-02-14T21:21:32.596Z,15.63
2023-02-14T21:24:01.968Z,14.07
2023-02-14T21:26:29.504Z,17.65
2023-02-14T21:28:56.593Z,18.85
2023-02-14T21:31:25.764Z,16.50
2023-02-14T21:33:54.695Z,15.38
2023-02-14T21:36:24.687Z,18.23
2023-02-14T21:38:51.989Z,14.80
2023-02-14T21:41:21.057Z,17.77
2023-02-14T21:43:49.812Z,13.27
2023-02-14T21:46:18.990Z,17.17
2023-02-14T21:49:05.095Z,12.40
2023-02-14T21:51:32.593Z,14.90
2023-02-14T21:54:00.033Z,14.65
2023-02-14T21:56:27.697Z,16.02
2023-02-14T21:58:55.874Z,14.63
2023-02-14T22:01:32.695Z,17.05
2023-02-14T22:04:00.591Z,15.60
2023-02-14T22:06:28.182Z,15.40
2023-02-14T22:09:01.022Z,15.00
2023-02-14T22:11:29.335Z,18.55
2023-02-14T22:13:56.569Z,16.15
2023-02-14T22:16:24.738Z,15.52
2023-02-14T22:18:52.510Z,19.75
2023-02-14T22:21:25.010Z,21.42
2023-02-14T22:23:52.160Z,12.90
2023-02-14T22:26:23.721Z,14.82
2023-02-14T22:28:53.917Z,12.80
2023-02-14T22:31:21.071Z,13.00
2023-02-14T22:33:49.132Z,15.73
2023-02-14T22:36:16.793Z,11.93
2023-02-14T22:38:44.001Z,13.55
2023-02-14T22:41:14.198Z,11.70
2023-02-14T22:43:42.193Z,13.90
2023-02-14T22:46:14.423Z,12.15
2023-02-14T22:48:41.666Z,11.80
2023-02-14T22:51:18.021Z,14.77
2023-02-14T22:53:45.158Z,16.77
2023-02-14T22:56:19.028Z,15.27
2023-02-14T22:58:46.671Z,14.07
2023-02-14T23:01:19.006Z,14.02
2023-02-14T23:03:46.884Z,14.18
2023-02-14T23:06:14.586Z,16.13
2023-02-14T23:08:43.588Z,13.48
2023-02-14T23:11:18.852Z,12.70
2023-02-14T23:14:05.027Z,15.07
2023-02-14T23:16:50.671Z,13.15
2023-02-14T23:19:39.017Z,15.63
2023-02-14T23:22:07.135Z,21.63
2023-02-14T23:24:34.139Z,13.85
2023-02-14T23:27:01.909Z,13.10
2023-02-14T23:29:29.416Z,15.10
2023-02-14T23:31:56.682Z,19.90
2023-02-14T23:34:28.931Z,15.80
2023-02-14T23:36:55.932Z,12.18
2023-02-14T23:39:23.585Z,14.95
2023-02-14T23:41:50.629Z,12.98
2023-02-14T23:44:19.906Z,13.75
2023-02-14T23:46:48.667Z,14.80
2023-02-14T23:49:16.607Z,13.18
2023-02-14T23:51:45.401Z,15.02
2023-02-14T23:54:13.345Z,11.88
2023-02-14T23:56:40.756Z,14.55
2023-02-14T23:59:08.213Z,11.27
